createdAt,value
2018-02-08T00:01:24.411Z,-0.03
2018-02-08T00:03:54.450Z,-0.03
2018-02-08T00:06:24.159Z,-0.12
2018-02-08T00:08:53.932Z,-0.14
2018-02-08T00:11:23.617Z,-0.14
2018-02-08T00:13:53.361Z,-0.10
2018-02-08T00:16:23.837Z,-0.11
2018-02-08T00:18:53.645Z,-0.15
2018-02-08T00:21:23.351Z,-0.05
2018-02-08T00:23:53.089Z,-0.13
2018-02-08T00:26:22.799Z,-0.19
2018-02-08T00:28:52.776Z,-0.22
2018-02-08T00:31:22.659Z,-0.26
2018-02-08T00:33:53.224Z,-0.32
2018-02-08T00:36:23.149Z,-0.30
2018-02-08T00:38:52.967Z,-0.30
2018-02-08T00:41:22.809Z,-0.31
2018-02-08T00:43:52.588Z,-0.25
2018-02-08T00:46:22.342Z,-0.24
2018-02-08T00:48:52.059Z,-0.20
2018-02-08T00:51:22.781Z,-0.15
2018-02-08T00:53:52.481Z,-0.06
2018-02-08T00:56:22.251Z,-0.23
2018-02-08T00:58:51.973Z,-0.30
2018-02-08T01:01:25.924Z,-0.37
2018-02-08T01:03:55.618Z,-0.40
2018-02-08T01:06:25.390Z,-0.40
2018-02-08T01:08:55.275Z,-0.42
2018-02-08T01:11:25.812Z,-0.43
2018-02-08T01:13:55.556Z,-0.42
2018-02-08T01:16:25.272Z,-0.48
2018-02-08T01:18:55.315Z,-0.46
2018-02-08T01:21:25.103Z,-0.48
2018-02-08T01:23:55.563Z,-0.50
2018-02-08T01:26:25.329Z,-0.48
2018-02-08T01:28:55.138Z,-0.42
2018-02-08T01:31:24.933Z,-0.41
2018-02-08T01:33:54.846Z,-0.45
2018-02-08T01:36:24.564Z,-0.45
2018-02-08T01:38:54.231Z,-0.44
2018-02-08T01:41:23.979Z,-0.42
2018-02-08T01:43:53.882Z,-0.40
2018-02-08T01:46:23.601Z,-0.42
2018-02-08T01:48:53.263Z,-0.47
2018-02-08T01:51:23.057Z,-0.48
2018-02-08T01:53:52.753Z,-0.44
2018-02-08T01:56:22.487Z,-0.41
2018-02-08T01:58:52.260Z,-0.38
2018-02-08T02:01:21.994Z,-0.41
2018-02-08T02:03:51.862Z,-0.43
2018-02-08T02:06:21.759Z,-0.46
2018-02-08T02:08:52.276Z,-0.53
2018-02-08T02:11:22.067Z,-0.63
2018-02-08T02:13:52.103Z,-0.71
2018-02-08T02:16:21.938Z,-0.72
2018-02-08T02:18:52.491Z,-0.70
2018-02-08T02:21:22.211Z,-0.71
2018-02-08T02:23:52.087Z,-0.71
2018-02-08T02:26:22.529Z,-0.70
2018-02-08T02:28:52.295Z,-0.77
2018-02-08T02:31:22.077Z,-0.80
2018-02-08T02:33:51.907Z,-0.80
2018-02-08T02:36:24.696Z,-0.80
2018-02-08T02:38:54.541Z,-0.80
2018-02-08T02:41:25.069Z,-0.82
2018-02-08T02:43:54.833Z,-0.80
2018-02-08T02:46:24.540Z,-0.78
2018-02-08T02:48:54.366Z,-0.75
2018-02-08T02:51:24.128Z,-0.80
2018-02-08T02:53:53.883Z,-0.83
2018-02-08T02:56:23.666Z,-0.83
2018-02-08T02:58:53.444Z,-0.86
2018-02-08T03:01:23.985Z,-0.88
2018-02-08T03:03:54.466Z,-0.96
2018-02-08T03:06:24.136Z,-1.02
2018-02-08T03:08:53.914Z,-0.98
2018-02-08T03:11:24.367Z,-0.95
2018-02-08T03:13:54.161Z,-0.93
2018-02-08T03:16:24.690Z,-0.87
2018-02-08T03:18:55.248Z,-0.80
2018-02-08T03:21:24.999Z,-0.79
2018-02-08T03:23:55.505Z,-0.79
2018-02-08T03:26:25.334Z,-0.80
2018-02-08T03:28:57.810Z,-0.80
2018-02-08T03:31:27.615Z,-0.80
2018-02-08T03:33:57.468Z,-0.81
2018-02-08T03:36:28.032Z,-0.81
2018-02-08T03:38:57.803Z,-0.82
2018-02-08T03:41:27.597Z,-0.81
2018-02-08T03:43:57.300Z,-0.84
2018-02-08T03:46:27.144Z,-0.94
2018-02-08T03:48:57.657Z,-1.00
2018-02-08T03:51:27.332Z,-1.00
2018-02-08T03:53:57.082Z,-1.04
2018-02-08T03:56:27.555Z,-1.02
2018-02-08T03:58:57.360Z,-1.05
2018-02-08T04:01:27.338Z,-1.12
2018-02-08T04:03:57.782Z,-1.10
2018-02-08T04:06:27.639Z,-1.11
2018-02-08T04:08:57.345Z,-1.13
2018-02-08T04:11:27.043Z,-1.14
2018-02-08T04:13:57.003Z,-1.10
2018-02-08T04:16:26.730Z,-1.11
2018-02-08T04:18:56.487Z,-1.15
2018-02-08T04:21:26.220Z,-1.18
2018-02-08T04:23:55.977Z,-1.21
2018-02-08T04:26:25.683Z,-1.28
2018-02-08T04:28:56.146Z,-1.33
2018-02-08T04:31:25.939Z,-1.37
2018-02-08T04:33:55.938Z,-1.41
2018-02-08T04:36:25.851Z,-1.41
2018-02-08T04:41:13.421Z,-1.40
2018-02-08T04:44:00.138Z,-1.47
2018-02-08T04:47:09.312Z,-1.48
2018-02-08T04:49:39.089Z,-1.48
2018-02-08T04:52:09.662Z,-1.48
2018-02-08T04:54:39.455Z,-1.50
2018-02-08T04:57:09.282Z,-1.53
2018-02-08T04:59:39.791Z,-1.59
2018-02-08T05:02:09.671Z,-1.63
2018-02-08T05:04:39.502Z,-1.64
2018-02-08T05:07:09.206Z,-1.62
2018-02-08T05:09:39.704Z,-1.70
2018-02-08T05:12:16.107Z,-1.73
2018-02-08T05:14:45.934Z,-1.75
2018-02-08T05:17:15.741Z,-1.82
2018-02-08T05:19:45.536Z,-1.81
2018-02-08T05:22:15.359Z,-1.82
2018-02-08T05:24:45.090Z,-1.84
2018-02-08T05:27:15.648Z,-1.88
2018-02-08T05:29:45.428Z,-1.88
2018-02-08T05:32:15.186Z,-1.82
2018-02-08T05:34:44.959Z,-1.87
2018-02-08T05:37:15.496Z,-1.80
2018-02-08T05:39:45.304Z,-1.83
2018-02-08T05:42:15.838Z,-1.91
2018-02-08T05:44:46.435Z,-1.94
2018-02-08T05:47:16.180Z,-1.89
2018-02-08T05:49:46.674Z,-1.93
2018-02-08T05:52:16.787Z,-1.87
2018-02-08T05:54:46.573Z,-1.83
2018-02-08T05:57:16.350Z,-1.86
2018-02-08T05:59:46.883Z,-1.91
2018-02-08T06:02:17.542Z,-2.00
2018-02-08T06:04:47.307Z,-1.98
2018-02-08T06:07:17.917Z,-1.92
2018-02-08T06:09:48.559Z,-1.98
2018-02-08T06:12:18.276Z,-1.97
2018-02-08T06:14:48.783Z,-1.94
2018-02-08T06:17:18.647Z,-1.94
2018-02-08T06:19:48.350Z,-1.93
2018-02-08T06:22:18.091Z,-1.89
2018-02-08T06:24:47.902Z,-1.94
2018-02-08T06:27:17.961Z,-2.02
2018-02-08T06:29:48.481Z,-2.14
2018-02-08T06:32:18.237Z,-2.12
2018-02-08T06:34:48.352Z,-2.05
2018-02-08T06:37:18.300Z,-1.99
2018-02-08T06:39:48.193Z,-1.99
2018-02-08T06:42:17.884Z,-2.11
2018-02-08T06:44:48.229Z,-2.25
2018-02-08T06:47:19.770Z,-2.19
2018-02-08T06:49:50.555Z,-2.17
2018-02-08T06:52:20.422Z,-2.21
2018-02-08T06:54:51.405Z,-2.15
2018-02-08T06:57:21.079Z,-2.11
2018-02-08T06:59:51.500Z,-2.06
2018-02-08T07:02:21.260Z,-2.04
2018-02-08T07:04:56.072Z,-2.03
2018-02-08T07:07:26.064Z,-2.09
2018-02-08T07:09:56.124Z,-2.11
2018-02-08T07:12:26.119Z,-2.08
2018-02-08T07:14:57.715Z,-1.99
2018-02-08T07:17:27.620Z,-1.90
2018-02-08T07:19:57.324Z,-1.83
2018-02-08T07:22:27.399Z,-1.77
2018-02-08T07:24:57.162Z,-1.78
2018-02-08T07:27:28.448Z,-1.73
2018-02-08T07:29:58.219Z,-1.69
2018-02-08T07:32:28.898Z,-1.67
2018-02-08T07:34:58.601Z,-1.53
2018-02-08T07:37:28.808Z,-1.44
2018-02-08T07:39:59.008Z,-1.42
2018-02-08T07:42:29.202Z,-1.41
2018-02-08T07:45:06.243Z,-1.35
2018-02-08T07:47:35.977Z,-1.24
2018-02-08T07:50:11.987Z,-1.25
2018-02-08T07:52:42.774Z,-1.13
2018-02-08T07:55:12.622Z,-1.01
2018-02-08T07:57:43.122Z,-1.00
2018-02-08T08:00:13.208Z,-0.99
2018-02-08T08:02:42.938Z,-0.99
2018-02-08T08:05:12.719Z,-1.02
2018-02-08T08:07:42.467Z,-0.82
2018-02-08T08:10:12.433Z,-0.85
2018-02-08T08:12:42.242Z,-0.71
2018-02-08T08:15:13.441Z,-0.58
2018-02-08T08:17:43.178Z,-0.49
2018-02-08T08:20:13.000Z,-0.42
2018-02-08T08:22:43.564Z,-0.41
2018-02-08T08:25:13.362Z,-0.33
2018-02-08T08:27:43.197Z,-0.37
2018-02-08T08:30:12.862Z,-0.39
2018-02-08T08:32:43.447Z,0.14
2018-02-08T08:35:13.272Z,0.01
2018-02-08T08:37:43.010Z,-0.09
2018-02-08T08:40:14.214Z,-0.27
2018-02-08T08:42:43.924Z,-0.27
2018-02-08T08:45:13.729Z,-0.32
2018-02-08T08:47:43.431Z,-0.35
2018-02-08T08:50:13.163Z,-0.33
2018-02-08T08:52:42.872Z,-0.34
2018-02-08T08:55:12.881Z,-0.22
2018-02-08T08:57:42.695Z,0.17
2018-02-08T09:00:12.497Z,0.16
2018-02-08T09:02:42.341Z,-0.02
2018-02-08T09:05:12.087Z,0.30
2018-02-08T09:07:42.760Z,0.40
2018-02-08T09:10:12.656Z,0.38
2018-02-08T09:12:42.436Z,0.10
2018-02-08T09:15:13.097Z,-0.06
2018-02-08T09:17:42.914Z,-0.11
2018-02-08T09:20:12.721Z,-0.13
2018-02-08T09:22:42.525Z,0.14
2018-02-08T09:25:12.259Z,0.32
2018-02-08T09:27:42.029Z,0.49
2018-02-08T09:30:12.642Z,0.66
2018-02-08T09:32:43.235Z,0.81
2018-02-08T09:35:13.717Z,0.88
2018-02-08T09:37:44.372Z,1.09
2018-02-08T09:40:14.323Z,1.15
2018-02-08T09:42:44.362Z,1.25
2018-02-08T09:45:14.112Z,1.30
2018-02-08T09:47:43.898Z,1.38
2018-02-08T09:50:14.371Z,1.39
2018-02-08T09:52:44.103Z,1.32
2018-02-08T09:55:13.984Z,1.31
2018-02-08T09:57:43.724Z,1.45
2018-02-08T10:00:13.492Z,1.60
2018-02-08T10:05:12.164Z,1.71
2018-02-08T10:07:42.630Z,1.77
2018-02-08T10:10:12.359Z,1.72
2018-02-08T10:12:42.102Z,1.89
2018-02-08T10:15:11.903Z,2.01
2018-02-08T10:17:41.771Z,2.04
2018-02-08T10:20:11.535Z,2.11
2018-02-08T10:22:41.237Z,2.07
2018-02-08T10:25:10.943Z,2.35
2018-02-08T10:27:40.971Z,2.48
2018-02-08T10:30:10.680Z,2.38
2018-02-08T10:32:40.397Z,2.39
2018-02-08T10:35:11.208Z,2.28
2018-02-08T10:37:41.163Z,2.39
2018-02-08T10:40:11.857Z,2.86
2018-02-08T10:42:41.574Z,4.65
2018-02-08T10:45:11.330Z,5.32
2018-02-08T10:47:41.175Z,5.58
2018-02-08T10:50:11.739Z,4.85
2018-02-08T10:52:42.365Z,4.07
2018-02-08T10:55:12.057Z,3.80
2018-02-08T10:57:41.775Z,3.69
2018-02-08T11:00:11.504Z,3.66
2018-02-08T11:02:41.434Z,3.47
2018-02-08T11:05:12.110Z,3.34
2018-02-08T11:07:41.836Z,3.36
2018-02-08T11:10:11.651Z,3.43
2018-02-08T11:12:41.680Z,3.45
2018-02-08T11:15:11.453Z,3.37
2018-02-08T11:17:41.334Z,3.35
2018-02-08T11:20:11.174Z,3.46
2018-02-08T11:22:42.181Z,3.49
2018-02-08T11:25:12.660Z,3.47
2018-02-08T11:27:42.423Z,4.12
2018-02-08T11:30:12.353Z,3.87
2018-02-08T11:32:42.107Z,3.68
2018-02-08T11:35:13.751Z,3.60
2018-02-08T11:37:43.415Z,3.45
2018-02-08T11:40:13.197Z,3.95
2018-02-08T11:42:43.347Z,3.75
2018-02-08T11:45:13.145Z,3.70
2018-02-08T11:47:44.042Z,3.61
2018-02-08T11:50:14.138Z,3.64
2018-02-08T11:52:43.918Z,3.53
2018-02-08T11:55:14.571Z,3.60
2018-02-08T11:57:45.556Z,3.50
2018-02-08T12:00:15.289Z,3.54
2018-02-08T12:02:45.903Z,3.59
2018-02-08T12:05:15.780Z,3.61
2018-02-08T12:07:45.530Z,3.65
2018-02-08T12:10:15.321Z,3.55
2018-02-08T12:12:45.261Z,4.48
2018-02-08T12:15:15.171Z,4.28
2018-02-08T12:17:44.994Z,4.02
2018-02-08T12:20:15.568Z,3.96
2018-02-08T12:22:45.536Z,3.82
2018-02-08T12:25:15.332Z,3.77
2018-02-08T12:27:45.230Z,3.58
2018-02-08T12:30:15.024Z,3.54
2018-02-08T12:32:44.742Z,3.69
2018-02-08T12:35:14.543Z,3.66
2018-02-08T12:37:44.375Z,3.77
2018-02-08T12:40:14.275Z,3.92
2018-02-08T12:42:44.033Z,3.86
2018-02-08T12:45:13.898Z,3.84
2018-02-08T12:47:43.804Z,3.97
2018-02-08T12:50:13.620Z,3.92
2018-02-08T12:52:44.132Z,4.09
2018-02-08T12:55:13.900Z,4.10
2018-02-08T12:57:43.634Z,4.24
2018-02-08T13:00:14.263Z,4.12
2018-02-08T13:02:45.087Z,4.23
2018-02-08T13:05:15.684Z,4.28
2018-02-08T13:07:46.230Z,4.34
2018-02-08T13:10:16.050Z,4.33
2018-02-08T13:12:46.026Z,4.27
2018-02-08T13:15:15.836Z,4.25
2018-02-08T13:17:46.895Z,4.42
2018-02-08T13:20:16.705Z,4.56
2018-02-08T13:22:46.448Z,4.55
2018-02-08T13:25:16.760Z,4.55
2018-02-08T13:27:46.761Z,4.71
2018-02-08T13:30:16.756Z,4.77
2018-02-08T13:32:46.571Z,4.78
2018-02-08T13:35:16.455Z,4.80
2018-02-08T13:37:47.056Z,4.94
2018-02-08T13:40:17.025Z,5.03
2018-02-08T13:42:46.800Z,4.95
2018-02-08T13:45:21.369Z,5.08
2018-02-08T13:47:51.164Z,5.16
2018-02-08T13:50:21.099Z,5.12
2018-02-08T13:52:50.939Z,5.25
2018-02-08T13:55:20.995Z,5.35
2018-02-08T13:57:50.995Z,5.21
2018-02-08T14:00:21.774Z,5.18
2018-02-08T14:02:51.580Z,5.26
2018-02-08T14:05:21.526Z,5.30
2018-02-08T14:07:51.262Z,5.23
2018-02-08T14:10:21.334Z,5.24
2018-02-08T14:12:51.086Z,5.26
2018-02-08T14:15:20.889Z,5.20
2018-02-08T14:17:50.602Z,5.18
2018-02-08T14:20:20.350Z,5.12
2018-02-08T14:22:50.902Z,5.06
2018-02-08T14:25:20.789Z,5.17
2018-02-08T14:27:51.288Z,5.01
2018-02-08T14:30:21.105Z,4.98
2018-02-08T14:32:50.803Z,5.03
2018-02-08T14:35:20.587Z,4.89
2018-02-08T14:37:50.325Z,4.85
2018-02-08T14:40:20.172Z,4.90
2018-02-08T14:42:50.691Z,4.74
2018-02-08T14:45:21.418Z,4.63
2018-02-08T14:47:51.964Z,4.60
2018-02-08T14:50:22.632Z,4.43
2018-02-08T14:52:52.428Z,4.29
2018-02-08T14:55:22.202Z,4.19
2018-02-08T14:57:52.163Z,4.07
2018-02-08T15:00:22.229Z,4.02
2018-02-08T15:02:52.167Z,4.05
2018-02-08T15:05:22.057Z,3.97
2018-02-08T15:07:51.823Z,3.90
2018-02-08T15:10:21.886Z,3.81
2018-02-08T15:12:51.719Z,3.84
2018-02-08T15:15:22.381Z,3.80
2018-02-08T15:17:52.092Z,3.74
2018-02-08T15:20:21.893Z,3.68
2018-02-08T15:22:51.744Z,3.66
2018-02-08T15:25:21.613Z,3.64
2018-02-08T15:27:51.490Z,3.60
2018-02-08T15:30:21.516Z,3.51
2018-02-08T15:32:51.279Z,3.55
2018-02-08T15:35:21.102Z,3.53
2018-02-08T15:37:50.960Z,3.50
2018-02-08T15:40:20.970Z,3.37
2018-02-08T15:42:52.154Z,3.38
2018-02-08T15:45:22.025Z,3.44
2018-02-08T15:47:51.732Z,3.38
2018-02-08T15:50:22.110Z,3.37
2018-02-08T15:52:52.068Z,3.31
2018-02-08T15:55:21.897Z,3.24
2018-02-08T15:57:52.460Z,3.20
2018-02-08T16:00:22.197Z,3.19
2018-02-08T16:02:52.103Z,3.16
2018-02-08T16:05:22.024Z,3.09
2018-02-08T16:07:51.834Z,3.10
2018-02-08T16:10:21.984Z,3.13
2018-02-08T16:12:51.746Z,3.04
2018-02-08T16:15:22.486Z,3.01
2018-02-08T16:17:52.310Z,3.04
2018-02-08T16:20:22.120Z,2.98
2018-02-08T16:22:51.881Z,2.93
2018-02-08T16:25:22.443Z,2.95
2018-02-08T16:27:52.164Z,2.94
2018-02-08T16:30:22.203Z,2.86
2018-02-08T16:32:51.951Z,2.82
2018-02-08T16:35:22.541Z,2.79
2018-02-08T16:37:52.326Z,2.80
2018-02-08T16:40:22.097Z,2.77
2018-02-08T16:42:51.951Z,2.74
2018-02-08T16:45:21.740Z,2.72
2018-02-08T16:47:51.469Z,2.66
2018-02-08T16:50:21.206Z,2.61
2018-02-08T16:52:51.074Z,2.52
2018-02-08T16:55:21.729Z,2.54
2018-02-08T16:57:51.587Z,2.50
2018-02-08T17:00:21.355Z,2.53
2018-02-08T17:02:51.369Z,2.49
2018-02-08T17:05:21.178Z,2.49
2018-02-08T17:07:50.991Z,2.45
2018-02-08T17:10:20.958Z,2.39
2018-02-08T17:12:50.730Z,2.34
2018-02-08T17:15:20.447Z,2.30
2018-02-08T17:17:50.213Z,2.33
2018-02-08T17:20:20.008Z,2.31
2018-02-08T17:22:49.865Z,2.32
2018-02-08T17:25:19.662Z,2.35
2018-02-08T17:27:50.294Z,2.32
2018-02-08T17:30:20.227Z,2.35
2018-02-08T17:32:50.027Z,2.29
2018-02-08T17:35:19.845Z,2.27
2018-02-08T17:37:49.781Z,2.26
2018-02-08T17:40:19.508Z,2.21
2018-02-08T17:42:49.366Z,2.14
2018-02-08T17:45:19.211Z,2.12
2018-02-08T17:47:49.350Z,2.08
2018-02-08T17:50:19.206Z,2.07
2018-02-08T17:52:49.021Z,2.09
2018-02-08T17:55:20.093Z,2.06
2018-02-08T17:57:49.874Z,2.01
2018-02-08T18:00:20.578Z,1.97
2018-02-08T18:02:50.513Z,1.91
2018-02-08T18:05:21.061Z,1.89
2018-02-08T18:07:50.791Z,1.84
2018-02-08T18:10:20.795Z,1.86
2018-02-08T18:12:50.573Z,1.81
2018-02-08T18:15:21.265Z,1.76
2018-02-08T18:17:51.065Z,1.74
2018-02-08T18:20:21.204Z,1.73
2018-02-08T18:22:51.159Z,1.72
2018-02-08T18:25:22.855Z,1.74
2018-02-08T18:27:52.650Z,1.70
2018-02-08T18:30:22.842Z,1.71
2018-02-08T18:32:53.413Z,2.21
2018-02-08T18:35:23.276Z,2.02
2018-02-08T18:37:53.912Z,1.95
2018-02-08T18:40:24.242Z,1.88
2018-02-08T18:42:54.768Z,1.82
2018-02-08T18:45:24.840Z,1.81
2018-02-08T18:47:54.735Z,1.76
2018-02-08T18:50:24.672Z,1.68
2018-02-08T18:52:54.338Z,1.62
2018-02-08T18:55:24.209Z,1.57
2018-02-08T18:57:54.055Z,1.53
2018-02-08T19:00:24.614Z,1.78
2018-02-08T19:02:54.312Z,1.71
2018-02-08T19:05:24.481Z,1.71
2018-02-08T19:07:54.185Z,1.67
2018-02-08T19:10:24.677Z,1.68
2018-02-08T19:12:54.496Z,1.57
2018-02-08T19:15:24.513Z,1.53
2018-02-08T19:17:54.553Z,1.44
2018-02-08T19:20:24.582Z,1.45
2018-02-08T19:22:54.288Z,1.74
2018-02-08T19:25:25.221Z,1.71
2018-02-08T19:27:55.014Z,1.56
2018-02-08T19:30:25.512Z,1.51
2018-02-08T19:32:55.403Z,1.47
2018-02-08T19:35:25.936Z,1.42
2018-02-08T19:37:56.892Z,1.41
2018-02-08T19:40:27.600Z,1.38
2018-02-08T19:42:59.597Z,1.39
2018-02-08T19:45:29.312Z,1.35
2018-02-08T19:47:59.936Z,1.41
2018-02-08T19:50:29.679Z,1.35
2018-02-08T19:52:59.510Z,1.33
2018-02-08T19:55:30.135Z,1.35
2018-02-08T19:58:02.142Z,1.33
2018-02-08T20:00:32.733Z,1.27
2018-02-08T20:03:02.843Z,1.24
2018-02-08T20:05:32.629Z,1.23
2018-02-08T20:08:03.170Z,1.20
2018-02-08T20:10:32.939Z,1.20
2018-02-08T20:13:04.118Z,1.22
2018-02-08T20:15:33.880Z,1.15
2018-02-08T20:18:03.869Z,1.16
2018-02-08T20:20:33.537Z,1.14
2018-02-08T20:23:04.085Z,1.13
2018-02-08T20:25:35.475Z,1.14
2018-02-08T20:28:05.581Z,1.15
2018-02-08T20:30:35.349Z,1.12
2018-02-08T20:33:06.179Z,1.14
2018-02-08T20:35:36.811Z,1.10
2018-02-08T20:38:06.704Z,1.06
2018-02-08T20:40:37.553Z,1.03
2018-02-08T20:43:13.463Z,1.02
2018-02-08T20:45:43.335Z,0.99
2018-02-08T20:48:13.399Z,0.99
2018-02-08T20:50:43.245Z,0.96
2018-02-08T20:53:13.849Z,0.98
2018-02-08T20:55:43.944Z,0.94
2018-02-08T20:58:13.785Z,0.91
2018-02-08T21:00:43.648Z,0.88
2018-02-08T21:03:13.467Z,0.91
2018-02-08T21:05:44.033Z,0.86
2018-02-08T21:08:15.721Z,0.85
2018-02-08T21:10:45.847Z,0.81
2018-02-08T21:13:15.744Z,0.82
2018-02-08T21:15:46.399Z,0.86
2018-02-08T21:18:16.265Z,0.86
2018-02-08T21:20:46.080Z,0.87
2018-02-08T21:23:16.028Z,0.85
2018-02-08T21:25:45.728Z,0.87
2018-02-08T21:28:15.516Z,0.85
2018-02-08T21:30:45.383Z,1.29
2018-02-08T21:33:15.132Z,1.16
2018-02-08T21:35:44.975Z,1.05
2018-02-08T21:38:15.540Z,0.97
2018-02-08T21:40:45.471Z,0.87
2018-02-08T21:43:15.265Z,0.86
2018-02-08T21:45:45.026Z,0.76
2018-02-08T21:48:14.813Z,0.77
2018-02-08T21:50:44.537Z,0.81
2018-02-08T21:53:14.473Z,0.73
2018-02-08T21:55:44.232Z,0.70
2018-02-08T21:58:13.940Z,0.69
2018-02-08T22:00:43.760Z,0.71
2018-02-08T22:03:13.482Z,0.74
2018-02-08T22:05:43.190Z,0.94
2018-02-08T22:08:12.985Z,0.83
2018-02-08T22:10:42.814Z,0.76
2018-02-08T22:13:12.619Z,0.75
2018-02-08T22:15:43.350Z,0.64
2018-02-08T22:18:13.102Z,0.65
2018-02-08T22:20:42.907Z,0.69
2018-02-08T22:23:12.646Z,0.66
2018-02-08T22:25:42.424Z,0.65
2018-02-08T22:28:12.169Z,0.68
2018-02-08T22:30:42.018Z,0.66
2018-02-08T22:33:11.823Z,0.60
2018-02-08T22:35:43.640Z,0.59
2018-02-08T22:38:14.260Z,0.58
2018-02-08T22:40:44.206Z,0.59
2018-02-08T22:43:13.994Z,0.64
2018-02-08T22:45:44.512Z,0.66
2018-02-08T22:48:14.977Z,0.57
2018-02-08T22:50:44.883Z,0.58
2018-02-08T22:53:14.610Z,0.61
2018-02-08T22:55:44.378Z,0.57
2018-02-08T22:58:14.331Z,0.61
2018-02-08T23:00:44.052Z,0.59
2018-02-08T23:03:13.722Z,0.69
2018-02-08T23:05:43.527Z,0.57
2018-02-08T23:08:14.074Z,0.58
2018-02-08T23:10:43.871Z,0.62
2018-02-08T23:13:13.688Z,0.63
2018-02-08T23:15:44.241Z,0.62
2018-02-08T23:18:14.034Z,0.56
2018-02-08T23:20:43.743Z,0.54
2018-02-08T23:23:13.429Z,0.55
2018-02-08T23:25:43.230Z,0.61
2018-02-08T23:28:12.905Z,0.55
2018-02-08T23:30:42.657Z,0.59
2018-02-08T23:33:12.346Z,0.54
2018-02-08T23:35:42.053Z,0.60
2018-02-08T23:38:11.815Z,0.56
2018-02-08T23:40:41.579Z,0.54
2018-02-08T23:43:11.293Z,0.52
2018-02-08T23:45:41.003Z,0.48
2018-02-08T23:48:10.756Z,0.51
2018-02-08T23:50:41.044Z,0.57
2018-02-08T23:53:10.868Z,0.50
2018-02-08T23:55:40.731Z,0.46
2018-02-08T23:58:10.484Z,0.46
